Time;durP1;ratioP1;P1;durP2;ratioP2;P2;SDS_P1;SDS_P2;PMS_P1;PMS_P2;Temp;Humidity;BMP_temperature;BMP_pressure;BME280_temperature;BME280_humidity;BME280_pressure;Samples;Min_cycle;Max_cycle;Signal;HPM_P1;HPM_P2
2022/07/20 00:01:50;;;;;;;4.68;4.20;;;;;;;;;;4896525;29;20060;-70
2022/07/20 00:04:17;;;;;;;4.30;3.50;;;;;;;;;;4896912;29;20116;-70
2022/07/20 00:06:44;;;;;;;5.75;3.63;;;;;;;;;;4896483;29;20059;-70
2022/07/20 00:11:56;;;;;;;3.97;3.40;;;;;;;;;;4896510;29;20057;-71
2022/07/20 00:14:23;;;;;;;5.43;3.45;;;;;;;;;;4896708;29;20052;-71
2022/07/20 00:16:50;;;;;;;6.13;3.80;;;;;;;;;;4896725;29;20503;-70
2022/07/20 00:19:17;;;;;;;7.05;3.45;;;;;;;;;;4896230;29;20062;-70
2022/07/20 00:21:43;;;;;;;4.32;3.90;;;;;;;;;;4895299;29;20053;-70
2022/07/20 00:24:10;;;;;;;4.55;3.28;;;;;;;;;;4898283;29;20139;-71
2022/07/20 00:26:37;;;;;;;6.22;3.55;;;;;;;;;;4899896;29;20060;-70
2022/07/20 00:29:04;;;;;;;5.10;3.47;;;;;;;;;;4899806;29;20053;-70
2022/07/20 00:31:30;;;;;;;5.65;3.38;;;;;;;;;;4900007;29;20055;-70
2022/07/20 00:33:57;;;;;;;3.67;3.17;;;;;;;;;;4899907;29;20059;-70
2022/07/20 00:36:24;;;;;;;4.63;3.38;;;;;;;;;;4900009;29;20052;-71
2022/07/20 00:38:51;;;;;;;7.18;3.80;;;;;;;;;;4899620;29;20492;-70
2022/07/20 00:41:18;;;;;;;6.05;3.40;;;;;;;;;;4900972;29;20140;-71
2022/07/20 00:44:03;;;;;;;4.90;2.95;;;;;;;;;;4898544;29;20053;-71
2022/07/20 00:46:32;;;;;;;4.88;2.97;;;;;;;;;;4899780;29;20059;-70
2022/07/20 00:48:59;;;;;;;4.82;3.40;;;;;;;;;;4899852;29;20084;-70
2022/07/20 00:51:26;;;;;;;6.10;4.00;;;;;;;;;;4900023;29;20060;-70
2022/07/20 00:53:53;;;;;;;7.10;3.80;;;;;;;;;;4899797;29;20060;-71
2022/07/20 00:56:21;;;;;;;5.53;3.28;;;;;;;;;;4899721;29;20048;-71
2022/07/20 00:58:48;;;;;;;6.68;3.42;;;;;;;;;;4899634;29;20432;-71
2022/07/20 01:01:15;;;;;;;3.90;3.17;;;;;;;;;;4899567;29;20135;-71
2022/07/20 01:03:43;;;;;;;5.00;3.03;;;;;;;;;;4899498;29;20094;-70
2022/07/20 01:06:10;;;;;;;5.05;4.03;;;;;;;;;;4898312;29;20083;-71
2022/07/20 01:08:37;;;;;;;5.13;3.28;;;;;;;;;;4899719;29;20063;-70
2022/07/20 01:11:03;;;;;;;6.63;3.67;;;;;;;;;;4899479;29;20435;-71
2022/07/20 01:13:30;;;;;;;4.25;3.70;;;;;;;;;;4899216;29;20107;-71
2022/07/20 01:15:57;;;;;;;5.18;4.00;;;;;;;;;;4899299;29;20049;-70
2022/07/20 01:18:24;;;;;;;4.68;3.50;;;;;;;;;;4899065;29;20059;-71
2022/07/20 01:21:02;;;;;;;4.13;3.35;;;;;;;;;;4899162;29;20113;-71
2022/07/20 01:23:29;;;;;;;6.15;3.88;;;;;;;;;;4897973;29;20057;-71
2022/07/20 01:25:56;;;;;;;6.78;3.70;;;;;;;;;;4897973;29;20062;-71
2022/07/20 01:28:23;;;;;;;5.65;3.20;;;;;;;;;;4898974;29;20188;-71
2022/07/20 01:30:50;;;;;;;4.93;3.50;;;;;;;;;;4899366;29;20058;-71
2022/07/20 01:33:20;;;;;;;4.15;3.53;;;;;;;;;;4898853;29;20052;-71
2022/07/20 01:35:47;;;;;;;6.25;3.80;;;;;;;;;;4898821;29;20048;-71
2022/07/20 01:38:13;;;;;;;7.22;3.30;;;;;;;;;;4899025;29;20048;-71
2022/07/20 01:40:40;;;;;;;4.35;3.25;;;;;;;;;;4899047;29;20141;-71
2022/07/20 01:43:07;;;;;;;6.43;3.65;;;;;;;;;;4899101;29;20139;-70
2022/07/20 01:45:33;;;;;;;8.43;3.80;;;;;;;;;;4899123;29;20052;-70
2022/07/20 01:48:00;;;;;;;3.75;3.40;;;;;;;;;;4898608;29;20056;-70
2022/07/20 01:50:27;;;;;;;6.13;3.55;;;;;;;;;;4898733;29;20504;-70
2022/07/20 01:52:54;;;;;;;4.28;3.50;;;;;;;;;;4898935;29;20052;-71
2022/07/20 01:55:20;;;;;;;3.65;3.35;;;;;;;;;;4897984;29;20045;-71
2022/07/20 01:57:47;;;;;;;5.72;3.40;;;;;;;;;;4898823;29;20311;-70
2022/07/20 02:00:14;;;;;;;8.00;3.50;;;;;;;;;;4898537;29;20083;-71
2022/07/20 02:02:46;;;;;;;5.72;3.60;;;;;;;;;;4898361;29;20052;-71
2022/07/20 02:05:13;;;;;;;3.53;3.22;;;;;;;;;;4898612;29;20088;-71
2022/07/20 02:07:40;;;;;;;5.30;3.47;;;;;;;;;;4898662;29;20538;-71
2022/07/20 02:10:08;;;;;;;4.70;3.63;;;;;;;;;;4898319;29;20057;-71
2022/07/20 02:12:36;;;;;;;4.20;3.28;;;;;;;;;;4932144;23;20534;-75
2022/07/20 02:15:07;;;;;;;7.07;3.88;;;;;;;;;;4934746;29;20468;-75
2022/07/20 02:17:34;;;;;;;6.10;3.85;;;;;;;;;;4919170;29;20486;-75
2022/07/20 02:20:01;;;;;;;7.15;3.05;;;;;;;;;;4935769;29;20055;-73
2022/07/20 02:22:27;;;;;;;4.05;3.30;;;;;;;;;;4913997;29;20659;-70
2022/07/20 02:24:54;;;;;;;5.65;3.40;;;;;;;;;;4915585;29;20062;-71
2022/07/20 02:27:21;;;;;;;6.28;3.58;;;;;;;;;;4915416;29;20423;-71
2022/07/20 02:29:47;;;;;;;5.65;3.88;;;;;;;;;;4931201;29;20070;-71
2022/07/20 02:32:14;;;;;;;3.90;3.25;;;;;;;;;;4916520;29;20443;-71
2022/07/20 02:34:41;;;;;;;5.28;3.80;;;;;;;;;;4916724;29;20052;-71
2022/07/20 02:37:12;;;;;;;5.90;3.13;;;;;;;;;;4916626;29;20048;-71
2022/07/20 02:39:40;;;;;;;4.00;3.50;;;;;;;;;;4916812;29;20060;-71
2022/07/20 02:42:08;;;;;;;6.55;3.83;;;;;;;;;;4916521;29;20103;-71
2022/07/20 02:44:38;;;;;;;5.78;3.85;;;;;;;;;;4915845;29;20056;-71
2022/07/20 02:47:05;;;;;;;8.85;4.00;;;;;;;;;;4915502;29;20052;-70
2022/07/20 02:49:33;;;;;;;7.30;3.88;;;;;;;;;;4916283;29;20051;-71
2022/07/20 02:52:00;;;;;;;5.25;3.30;;;;;;;;;;4916306;29;20063;-71
2022/07/20 02:54:27;;;;;;;9.65;4.20;;;;;;;;;;4916178;29;20067;-71
2022/07/20 02:56:53;;;;;;;8.00;4.32;;;;;;;;;;4915335;29;20424;-71
2022/07/20 02:59:20;;;;;;;4.07;3.40;;;;;;;;;;4899472;29;20069;-71
2022/07/20 03:01:47;;;;;;;7.30;4.15;;;;;;;;;;4896170;29;20060;-71
2022/07/20 03:04:13;;;;;;;8.50;4.28;;;;;;;;;;4897132;29;20060;-71
2022/07/20 03:06:40;;;;;;;7.75;4.38;;;;;;;;;;4895927;29;20052;-71
2022/07/20 03:09:07;;;;;;;4.68;3.70;;;;;;;;;;4896891;29;20052;-71
2022/07/20 03:11:33;;;;;;;5.30;4.10;;;;;;;;;;4895978;29;20496;-71
2022/07/20 03:14:00;;;;;;;4.68;4.07;;;;;;;;;;4896854;29;20060;-71
2022/07/20 03:16:27;;;;;;;9.35;4.18;;;;;;;;;;4909707;29;20048;-71
2022/07/20 03:18:53;;;;;;;6.63;4.05;;;;;;;;;;4914667;29;20131;-71
2022/07/20 03:21:21;;;;;;;5.22;4.32;;;;;;;;;;4914669;29;20419;-71
2022/07/20 03:23:48;;;;;;;7.40;4.18;;;;;;;;;;4915613;29;20058;-71
2022/07/20 03:26:15;;;;;;;7.30;4.10;;;;;;;;;;4899160;29;20376;-71
2022/07/20 03:28:42;;;;;;;6.60;4.20;;;;;;;;;;4914734;29;20127;-71
2022/07/20 03:31:09;;;;;;;4.95;3.67;;;;;;;;;;4915592;29;20059;-71
2022/07/20 03:33:35;;;;;;;6.38;4.22;;;;;;;;;;4898903;29;20123;-71
2022/07/20 03:36:03;;;;;;;5.53;3.63;;;;;;;;;;4915637;29;20048;-71
2022/07/20 03:38:29;;;;;;;6.13;4.60;;;;;;;;;;4915373;29;20051;-71
2022/07/20 03:40:56;;;;;;;4.72;4.25;;;;;;;;;;4915816;29;20048;-71
2022/07/20 03:43:25;;;;;;;9.13;4.20;;;;;;;;;;4915806;29;20072;-71
2022/07/20 03:45:52;;;;;;;5.07;3.83;;;;;;;;;;4914501;29;20582;-71
2022/07/20 03:48:19;;;;;;;9.57;4.28;;;;;;;;;;4915452;29;20056;-71
2022/07/20 03:50:46;;;;;;;8.80;4.90;;;;;;;;;;4898835;29;20063;-71
2022/07/20 03:53:13;;;;;;;8.05;3.97;;;;;;;;;;4899153;29;20056;-72
2022/07/20 03:55:41;;;;;;;8.88;4.80;;;;;;;;;;4898896;29;20048;-71
2022/07/20 03:58:07;;;;;;;9.23;4.30;;;;;;;;;;4915813;29;20059;-71
2022/07/20 04:00:34;;;;;;;6.85;4.65;;;;;;;;;;4917970;29;20051;-71
2022/07/20 04:03:00;;;;;;;4.80;4.30;;;;;;;;;;4919249;29;20052;-71
2022/07/20 04:05:28;;;;;;;5.57;4.28;;;;;;;;;;4917819;29;20052;-71
2022/07/20 04:07:54;;;;;;;9.77;4.18;;;;;;;;;;4919353;29;20053;-71
2022/07/20 04:10:21;;;;;;;9.02;5.22;;;;;;;;;;4919448;29;20056;-71
2022/07/20 04:12:50;;;;;;;7.63;4.38;;;;;;;;;;4917899;29;20078;-71
2022/07/20 04:15:17;;;;;;;9.82;4.55;;;;;;;;;;4919166;29;20531;-71
2022/07/20 04:17:44;;;;;;;7.50;4.10;;;;;;;;;;4917779;29;20052;-71
2022/07/20 04:20:11;;;;;;;5.82;4.15;;;;;;;;;;4902065;29;20405;-71
2022/07/20 04:22:37;;;;;;;6.43;4.30;;;;;;;;;;4902161;29;20056;-71
2022/07/20 04:25:04;;;;;;;6.97;4.15;;;;;;;;;;4917603;29;20063;-71
2022/07/20 04:27:31;;;;;;;6.18;4.72;;;;;;;;;;4914972;29;20474;-70
2022/07/20 04:29:58;;;;;;;7.68;4.20;;;;;;;;;;4918486;29;20419;-70
2022/07/20 04:32:24;;;;;;;4.88;4.03;;;;;;;;;;4918101;29;20507;-70
2022/07/20 04:34:51;;;;;;;7.57;4.43;;;;;;;;;;4915090;29;20048;-70
2022/07/20 04:37:19;;;;;;;6.68;4.53;;;;;;;;;;4919010;29;20048;-70
2022/07/20 04:39:46;;;;;;;5.40;4.40;;;;;;;;;;4901951;29;20052;-70
2022/07/20 04:42:13;;;;;;;9.65;5.35;;;;;;;;;;4917489;29;20052;-71
2022/07/20 04:44:39;;;;;;;6.40;4.45;;;;;;;;;;4917428;29;20055;-70
2022/07/20 04:47:06;;;;;;;8.40;4.35;;;;;;;;;;4901682;29;20048;-70
2022/07/20 04:49:33;;;;;;;12.02;4.90;;;;;;;;;;4917155;29;20059;-70
2022/07/20 04:52:00;;;;;;;8.18;5.50;;;;;;;;;;4917233;29;20071;-69
2022/07/20 04:54:26;;;;;;;6.32;4.38;;;;;;;;;;4918554;29;20052;-69
2022/07/20 04:56:53;;;;;;;8.43;4.80;;;;;;;;;;4917169;29;20071;-70
2022/07/20 04:59:20;;;;;;;8.50;4.88;;;;;;;;;;4917937;29;20052;-69
2022/07/20 05:01:46;;;;;;;8.88;6.43;;;;;;;;;;4918239;29;20048;-69
2022/07/20 05:04:13;;;;;;;10.35;6.35;;;;;;;;;;4917010;29;20056;-69
2022/07/20 05:06:41;;;;;;;14.23;4.93;;;;;;;;;;4916960;29;20052;-69
2022/07/20 05:09:10;;;;;;;9.98;4.85;;;;;;;;;;4918105;29;20056;-69
2022/07/20 05:11:40;;;;;;;5.28;4.13;;;;;;;;;;4917145;29;20048;-69
2022/07/20 05:14:08;;;;;;;10.55;5.43;;;;;;;;;;4916692;29;20044;-70
2022/07/20 05:16:35;;;;;;;9.20;4.57;;;;;;;;;;4918013;29;20567;-70
2022/07/20 05:19:02;;;;;;;9.20;4.90;;;;;;;;;;4916817;29;20107;-72
2022/07/20 05:21:33;;;;;;;8.68;4.93;;;;;;;;;;4901976;29;20068;-71
2022/07/20 05:24:00;;;;;;;7.85;4.75;;;;;;;;;;4916795;29;20060;-71
2022/07/20 05:26:27;;;;;;;10.48;4.93;;;;;;;;;;4915336;29;20048;-71
2022/07/20 05:28:53;;;;;;;7.47;4.55;;;;;;;;;;4914643;29;20078;-68
2022/07/20 05:31:20;;;;;;;6.70;4.20;;;;;;;;;;4900947;29;20052;-68
2022/07/20 05:33:47;;;;;;;7.00;4.47;;;;;;;;;;4903525;29;20460;-68
2022/07/20 05:36:13;;;;;;;7.75;4.25;;;;;;;;;;4901902;29;20496;-69
2022/07/20 05:38:40;;;;;;;5.07;4.07;;;;;;;;;;4904856;29;20059;-69
2022/07/20 05:41:07;;;;;;;6.60;4.30;;;;;;;;;;4901339;29;20045;-69
2022/07/20 05:43:33;;;;;;;7.93;4.22;;;;;;;;;;4896258;29;20052;-68
2022/07/20 05:46:00;;;;;;;4.80;3.13;;;;;;;;;;4901519;29;20914;-68
2022/07/20 05:48:27;;;;;;;8.00;3.58;;;;;;;;;;4901586;29;20048;-68
2022/07/20 05:50:53;;;;;;;5.78;4.35;;;;;;;;;;4904771;29;20056;-68
2022/07/20 05:53:20;;;;;;;5.88;3.83;;;;;;;;;;4903240;29;20059;-68
2022/07/20 05:55:47;;;;;;;8.32;3.70;;;;;;;;;;4901235;29;20524;-68
2022/07/20 05:58:14;;;;;;;5.75;3.83;;;;;;;;;;4890204;29;20048;-68
2022/07/20 06:00:41;;;;;;;8.73;3.92;;;;;;;;;;4911301;29;20064;-68
2022/07/20 06:03:08;;;;;;;4.10;3.08;;;;;;;;;;4895117;29;20052;-68
2022/07/20 06:05:34;;;;;;;7.32;3.50;;;;;;;;;;4894484;29;20067;-68
2022/07/20 06:08:02;;;;;;;7.63;3.97;;;;;;;;;;4900134;29;20066;-68
2022/07/20 06:10:30;;;;;;;9.10;3.88;;;;;;;;;;4900360;29;20139;-70
2022/07/20 06:12:57;;;;;;;4.80;3.38;;;;;;;;;;4896797;29;20143;-70
2022/07/20 06:15:25;;;;;;;6.60;4.07;;;;;;;;;;4894824;29;20172;-70
2022/07/20 06:17:53;;;;;;;4.60;3.15;;;;;;;;;;4893504;29;20056;-69
2022/07/20 06:20:21;;;;;;;4.82;3.42;;;;;;;;;;4896271;29;20052;-69
2022/07/20 06:22:47;;;;;;;5.35;3.83;;;;;;;;;;4892690;29;20058;-69
2022/07/20 06:25:15;;;;;;;5.85;3.60;;;;;;;;;;4906513;29;20141;-69
2022/07/20 06:27:42;;;;;;;4.75;3.45;;;;;;;;;;4907685;29;20499;-69
2022/07/20 06:30:10;;;;;;;7.00;3.50;;;;;;;;;;4892747;29;20059;-69
2022/07/20 06:32:38;;;;;;;5.90;3.53;;;;;;;;;;4884491;29;20056;-70
2022/07/20 06:35:05;;;;;;;6.97;4.18;;;;;;;;;;4894135;29;20056;-69
2022/07/20 06:37:31;;;;;;;7.07;3.55;;;;;;;;;;4899978;29;20048;-69
2022/07/20 06:39:58;;;;;;;6.90;3.00;;;;;;;;;;4902533;29;20071;-69
2022/07/20 06:42:25;;;;;;;4.78;2.92;;;;;;;;;;4901945;29;20055;-69
2022/07/20 06:44:52;;;;;;;5.85;3.35;;;;;;;;;;4901795;29;20059;-71
2022/07/20 06:47:18;;;;;;;4.82;3.22;;;;;;;;;;4902407;29;20055;-69
2022/07/20 06:49:45;;;;;;;6.32;3.63;;;;;;;;;;4899588;29;20393;-69
2022/07/20 06:52:12;;;;;;;9.38;4.32;;;;;;;;;;4906596;29;20497;-69
2022/07/20 06:54:39;;;;;;;13.77;5.40;;;;;;;;;;4902473;29;20089;-70
2022/07/20 06:57:06;;;;;;;7.82;5.63;;;;;;;;;;4907393;29;20052;-70
2022/07/20 06:59:33;;;;;;;7.80;5.05;;;;;;;;;;4903930;29;20162;-71
2022/07/20 07:01:59;;;;;;;10.88;5.45;;;;;;;;;;4904640;29;20047;-70
2022/07/20 07:04:26;;;;;;;8.85;4.43;;;;;;;;;;4901126;29;20056;-70
2022/07/20 07:06:53;;;;;;;6.47;4.00;;;;;;;;;;4899113;29;20044;-72
2022/07/20 07:09:19;;;;;;;8.55;5.05;;;;;;;;;;4910150;29;20535;-72
2022/07/20 07:11:53;;;;;;;6.32;4.10;;;;;;;;;;4902187;29;20064;-73
2022/07/20 07:14:20;;;;;;;5.88;4.00;;;;;;;;;;4918811;29;20423;-72
2022/07/20 07:16:46;;;;;;;6.05;4.22;;;;;;;;;;4903009;29;20045;-71
2022/07/20 07:19:13;;;;;;;8.02;3.78;;;;;;;;;;4901374;29;20064;-68
2022/07/20 07:21:40;;;;;;;5.53;4.13;;;;;;;;;;4901399;29;20063;-72
2022/07/20 07:24:07;;;;;;;7.10;4.80;;;;;;;;;;4906593;29;20055;-73
2022/07/20 07:26:33;;;;;;;5.63;4.40;;;;;;;;;;4907238;29;20140;-70
2022/07/20 07:29:00;;;;;;;7.85;5.07;;;;;;;;;;4904300;29;20048;-71
2022/07/20 07:31:29;;;;;;;6.97;4.95;;;;;;;;;;4907310;29;20071;-70
2022/07/20 07:33:56;;;;;;;8.65;4.55;;;;;;;;;;4903663;29;20100;-70
2022/07/20 07:36:32;;;;;;;11.07;4.90;;;;;;;;;;4904675;29;20234;-74
2022/07/20 07:38:59;;;;;;;5.85;4.20;;;;;;;;;;4872915;29;20600;-71
2022/07/20 07:41:26;;;;;;;7.47;4.63;;;;;;;;;;4888382;29;20052;-72
2022/07/20 07:43:52;;;;;;;8.95;4.60;;;;;;;;;;4903200;29;20052;-70
2022/07/20 07:46:19;;;;;;;5.68;4.47;;;;;;;;;;4905009;29;20052;-70
2022/07/20 07:48:46;;;;;;;8.02;4.88;;;;;;;;;;4908662;29;20052;-69
2022/07/20 07:51:13;;;;;;;7.43;4.93;;;;;;;;;;4896739;29;20435;-68
2022/07/20 07:53:40;;;;;;;5.97;4.20;;;;;;;;;;4901265;29;20062;-69
2022/07/20 07:56:07;;;;;;;6.60;5.03;;;;;;;;;;4901405;29;20048;-68
2022/07/20 07:58:34;;;;;;;6.03;4.40;;;;;;;;;;4900994;29;20052;-68
2022/07/20 08:01:00;;;;;;;7.25;4.38;;;;;;;;;;4902007;29;20048;-70
2022/07/20 08:03:27;;;;;;;7.18;4.30;;;;;;;;;;4909764;29;20112;-71
2022/07/20 08:05:58;;;;;;;5.90;4.15;;;;;;;;;;4904248;29;20048;-70
2022/07/20 08:08:26;;;;;;;7.07;4.53;;;;;;;;;;4894852;29;20041;-69
2022/07/20 08:10:53;;;;;;;5.30;4.10;;;;;;;;;;4899203;29;20058;-69
2022/07/20 08:13:20;;;;;;;5.88;4.80;;;;;;;;;;4910217;29;20063;-68
2022/07/20 08:15:46;;;;;;;11.20;4.63;;;;;;;;;;4904252;29;20056;-69
2022/07/20 08:18:17;;;;;;;10.35;4.28;;;;;;;;;;4910429;29;20526;-69
2022/07/20 08:20:44;;;;;;;6.90;3.88;;;;;;;;;;4899885;29;20084;-69
2022/07/20 08:23:11;;;;;;;8.57;4.68;;;;;;;;;;4904214;29;20052;-69
2022/07/20 08:25:38;;;;;;;8.65;4.50;;;;;;;;;;4905313;29;20047;-69
2022/07/20 08:28:16;;;;;;;8.65;5.88;;;;;;;;;;4902671;29;20055;-69
2022/07/20 08:30:45;;;;;;;11.50;5.85;;;;;;;;;;4902637;29;20051;-69
2022/07/20 08:33:21;;;;;;;8.90;5.13;;;;;;;;;;4901936;29;20053;-70
2022/07/20 08:35:48;;;;;;;5.45;4.65;;;;;;;;;;4902868;29;20044;-69
2022/07/20 08:38:15;;;;;;;7.60;4.47;;;;;;;;;;4900745;29;20048;-68
2022/07/20 08:40:42;;;;;;;6.22;5.50;;;;;;;;;;4902943;29;20419;-68
2022/07/20 08:43:09;;;;;;;7.30;5.10;;;;;;;;;;4899325;29;20059;-69
2022/07/20 08:45:36;;;;;;;6.25;4.72;;;;;;;;;;4895801;29;20048;-69
2022/07/20 08:48:06;;;;;;;7.68;5.32;;;;;;;;;;4903940;29;20078;-69
2022/07/20 08:50:34;;;;;;;6.65;3.92;;;;;;;;;;4904746;29;20504;-67
2022/07/20 08:53:01;;;;;;;4.88;4.38;;;;;;;;;;4907512;29;20467;-68
2022/07/20 08:55:29;;;;;;;5.43;4.63;;;;;;;;;;4915914;29;20052;-68
2022/07/20 08:57:55;;;;;;;6.97;4.38;;;;;;;;;;4907387;29;20059;-68
2022/07/20 09:00:22;;;;;;;5.72;3.95;;;;;;;;;;4903943;29;20059;-68
2022/07/20 09:02:56;;;;;;;7.55;4.07;;;;;;;;;;4905246;29;20139;-68
2022/07/20 09:05:24;;;;;;;5.93;4.82;;;;;;;;;;4905479;29;20420;-68
2022/07/20 09:07:53;;;;;;;7.75;4.97;;;;;;;;;;4904430;29;20052;-69
2022/07/20 09:10:24;;;;;;;9.52;4.70;;;;;;;;;;4913025;29;20063;-68
2022/07/20 09:12:56;;;;;;;7.43;4.35;;;;;;;;;;4895847;29;20053;-68
2022/07/20 09:15:39;;;;;;;5.73;4.60;;;;;;;;;;4922282;29;20048;-67
2022/07/20 09:18:15;;;;;;;8.35;4.65;;;;;;;;;;4899295;29;20319;-68
2022/07/20 09:21:01;;;;;;;10.73;4.97;;;;;;;;;;4903788;29;20052;-70
2022/07/20 09:23:33;;;;;;;10.40;5.07;;;;;;;;;;4903335;29;20516;-71
2022/07/20 09:26:12;;;;;;;7.45;4.18;;;;;;;;;;4895338;29;20123;-70
2022/07/20 09:28:40;;;;;;;7.63;4.82;;;;;;;;;;4904011;29;20063;-69
2022/07/20 09:31:14;;;;;;;5.07;4.57;;;;;;;;;;4904449;29;20048;-69
2022/07/20 09:33:57;;;;;;;7.15;4.88;;;;;;;;;;4903340;29;20049;-67
2022/07/20 09:36:27;;;;;;;5.80;4.35;;;;;;;;;;4902753;29;20166;-68
2022/07/20 09:38:54;;;;;;;11.18;4.97;;;;;;;;;;4894339;29;20076;-68
2022/07/20 09:41:30;;;;;;;6.10;4.70;;;;;;;;;;4902010;29;20503;-68
2022/07/20 09:43:58;;;;;;;8.30;4.65;;;;;;;;;;4908429;29;20052;-68
2022/07/20 09:46:33;;;;;;;6.13;3.97;;;;;;;;;;4925997;29;20052;-69
2022/07/20 09:49:07;;;;;;;7.22;4.53;;;;;;;;;;4924944;29;20079;-68
2022/07/20 09:51:43;;;;;;;6.85;4.63;;;;;;;;;;4924796;29;20152;-68
2022/07/20 09:54:14;;;;;;;8.32;4.60;;;;;;;;;;4923720;29;20063;-68
2022/07/20 09:56:46;;;;;;;8.55;4.95;;;;;;;;;;4898755;29;20068;-68
2022/07/20 09:59:13;;;;;;;10.82;4.78;;;;;;;;;;4913599;29;20393;-67
2022/07/20 10:01:44;;;;;;;6.15;4.50;;;;;;;;;;4898237;29;20055;-68
2022/07/20 10:04:11;;;;;;;6.78;3.80;;;;;;;;;;4895012;29;20087;-69
2022/07/20 10:06:39;;;;;;;6.68;4.60;;;;;;;;;;4880166;29;20100;-68
2022/07/20 10:09:06;;;;;;;5.25;4.30;;;;;;;;;;4894603;29;20150;-68
2022/07/20 10:11:33;;;;;;;5.88;4.00;;;;;;;;;;4879891;29;20073;-68
2022/07/20 10:14:03;;;;;;;4.70;4.30;;;;;;;;;;4894670;29;20409;-69
2022/07/20 10:16:43;;;;;;;8.90;4.30;;;;;;;;;;4880026;29;20061;-68
2022/07/20 10:19:10;;;;;;;9.18;4.43;;;;;;;;;;4897673;29;20048;-68
2022/07/20 10:21:41;;;;;;;7.72;4.93;;;;;;;;;;4897321;29;20060;-68
2022/07/20 10:24:34;;;;;;;6.60;4.47;;;;;;;;;;4913371;29;20083;-67
2022/07/20 10:27:19;;;;;;;7.50;4.43;;;;;;;;;;4912984;29;20048;-67
2022/07/20 10:29:48;;;;;;;6.30;4.63;;;;;;;;;;4914615;29;20508;-68
2022/07/20 10:32:23;;;;;;;9.05;4.93;;;;;;;;;;4913388;29;20052;-69
2022/07/20 10:35:00;;;;;;;4.75;4.30;;;;;;;;;;4928870;29;20051;-69
2022/07/20 10:37:40;;;;;;;6.75;4.55;;;;;;;;;;4897165;29;20443;-69
2022/07/20 10:40:23;;;;;;;5.35;4.28;;;;;;;;;;4928503;29;20067;-69
2022/07/20 10:42:53;;;;;;;7.00;4.50;;;;;;;;;;4910021;29;20060;-69
2022/07/20 10:45:19;;;;;;;8.90;5.18;;;;;;;;;;4894130;29;20433;-69
2022/07/20 10:47:48;;;;;;;8.57;4.38;;;;;;;;;;4898331;29;20048;-70
2022/07/20 10:50:28;;;;;;;7.78;4.43;;;;;;;;;;4897579;29;20064;-69
2022/07/20 10:53:20;;;;;;;7.60;4.60;;;;;;;;;;4912865;29;20063;-69
2022/07/20 10:55:58;;;;;;;5.75;4.45;;;;;;;;;;4914017;29;20052;-70
2022/07/20 10:58:27;;;;;;;4.88;4.22;;;;;;;;;;4912541;29;20451;-70
2022/07/20 11:00:56;;;;;;;4.68;4.13;;;;;;;;;;4912880;29;20525;-69
2022/07/20 11:03:24;;;;;;;5.25;4.72;;;;;;;;;;4897085;29;20111;-69
2022/07/20 11:06:13;;;;;;;6.55;4.60;;;;;;;;;;4912642;29;20427;-69
2022/07/20 11:08:50;;;;;;;6.65;4.05;;;;;;;;;;4911526;29;20055;-69
2022/07/20 11:11:19;;;;;;;7.85;4.35;;;;;;;;;;4898067;29;20056;-70
2022/07/20 11:13:47;;;;;;;7.90;5.22;;;;;;;;;;4897313;29;20058;-70
2022/07/20 11:16:13;;;;;;;6.25;5.03;;;;;;;;;;4897239;29;20052;-70
2022/07/20 11:18:40;;;;;;;6.75;4.57;;;;;;;;;;4908478;29;20463;-67
2022/07/20 11:21:08;;;;;;;5.30;4.03;;;;;;;;;;4910955;29;20063;-69
2022/07/20 11:23:44;;;;;;;5.18;4.20;;;;;;;;;;4897068;29;20060;-69
2022/07/20 11:26:13;;;;;;;11.25;5.22;;;;;;;;;;4913805;29;20518;-69
2022/07/20 11:28:54;;;;;;;7.43;4.97;;;;;;;;;;4913306;29;20106;-71
2022/07/20 11:31:29;;;;;;;6.40;4.47;;;;;;;;;;4896773;29;20427;-69
2022/07/20 11:33:58;;;;;;;5.28;4.50;;;;;;;;;;4897029;29;20091;-69
2022/07/20 11:36:28;;;;;;;8.23;4.20;;;;;;;;;;4912588;29;20400;-68
2022/07/20 11:38:56;;;;;;;8.20;4.13;;;;;;;;;;4896938;29;20048;-68
2022/07/20 11:41:31;;;;;;;10.65;4.68;;;;;;;;;;4896798;29;20447;-67
2022/07/20 11:43:58;;;;;;;5.90;4.50;;;;;;;;;;4912470;29;20054;-68
2022/07/20 11:46:27;;;;;;;8.45;4.45;;;;;;;;;;4897108;29;20063;-69
2022/07/20 11:48:59;;;;;;;9.43;4.53;;;;;;;;;;4912159;29;20080;-68
2022/07/20 11:51:59;;;;;;;7.38;4.53;;;;;;;;;;4912259;29;20064;-67
2022/07/20 11:54:28;;;;;;;10.25;4.80;;;;;;;;;;4897871;29;20060;-68
2022/07/20 11:56:55;;;;;;;7.57;4.53;;;;;;;;;;4896567;29;20059;-68
2022/07/20 11:59:22;;;;;;;5.63;4.78;;;;;;;;;;4896726;29;20108;-68
2022/07/20 12:01:51;;;;;;;7.18;4.80;;;;;;;;;;4908820;29;20049;-68
2022/07/20 12:04:19;;;;;;;6.07;5.03;;;;;;;;;;4893490;29;20052;-68
2022/07/20 12:06:46;;;;;;;5.43;4.82;;;;;;;;;;4893534;29;20484;-67
2022/07/20 12:09:18;;;;;;;7.07;4.53;;;;;;;;;;4892622;29;20068;-68
2022/07/20 12:11:55;;;;;;;;;;;;;;;;;;4880661;29;20048;-72
2022/07/20 12:14:48;;;;;;;5.93;4.43;;;;;;;;;;4894634;29;19924;-68
2022/07/20 12:17:24;;;;;;;8.57;4.60;;;;;;;;;;4893609;29;20080;-69
2022/07/20 12:19:54;;;;;;;5.07;4.57;;;;;;;;;;4895514;29;20499;-73
2022/07/20 12:22:29;;;;;;;6.35;4.85;;;;;;;;;;4907426;29;20076;-76
2022/07/20 12:25:05;;;;;;;5.97;4.93;;;;;;;;;;4905726;29;20143;-70
2022/07/20 12:27:34;;;;;;;7.47;4.43;;;;;;;;;;4903305;29;20147;-70
2022/07/20 12:30:26;;;;;;;5.00;4.50;;;;;;;;;;4896420;29;20055;-69
2022/07/20 12:33:04;;;;;;;8.48;5.13;;;;;;;;;;4901361;29;20063;-69
2022/07/20 12:35:31;;;;;;;6.68;5.15;;;;;;;;;;4897888;29;20052;-70
2022/07/20 12:37:58;;;;;;;6.68;4.78;;;;;;;;;;4897815;29;20391;-69
2022/07/20 12:40:44;;;;;;;5.45;4.78;;;;;;;;;;4895657;29;20056;-70
2022/07/20 12:43:33;;;;;;;5.93;4.40;;;;;;;;;;4904834;29;20139;-70
2022/07/20 12:46:05;;;;;;;7.63;4.43;;;;;;;;;;4904194;29;20103;-70
2022/07/20 12:48:40;;;;;;;5.55;5.03;;;;;;;;;;4896510;29;20136;-69
2022/07/20 12:51:08;;;;;;;8.75;5.22;;;;;;;;;;4888630;29;20055;-69
2022/07/20 12:53:36;;;;;;;9.43;5.30;;;;;;;;;;4895399;29;20527;-70
2022/07/20 12:56:11;;;;;;;9.93;4.65;;;;;;;;;;4904808;29;20146;-69
2022/07/20 12:58:38;;;;;;;5.97;4.70;;;;;;;;;;4900176;29;20048;-71
2022/07/20 13:01:05;;;;;;;5.85;5.07;;;;;;;;;;4911365;29;20060;-72
2022/07/20 13:03:31;;;;;;;9.95;5.57;;;;;;;;;;4914970;29;20048;-71
2022/07/20 13:05:58;;;;;;;6.40;5.50;;;;;;;;;;4921076;29;20500;-72
2022/07/20 13:08:25;;;;;;;8.98;7.15;;;;;;;;;;4916530;29;20045;-71
2022/07/20 13:10:54;;;;;;;8.13;6.15;;;;;;;;;;4914472;29;20138;-70
2022/07/20 13:13:20;;;;;;;9.77;6.93;;;;;;;;;;4917120;29;20077;-71
2022/07/20 13:15:47;;;;;;;10.35;7.18;;;;;;;;;;4924917;29;20102;-70
2022/07/20 13:18:14;;;;;;;15.40;8.60;;;;;;;;;;4921189;29;20063;-71
2022/07/20 13:20:40;;;;;;;11.02;8.85;;;;;;;;;;4918939;29;20052;-69
2022/07/20 13:23:08;;;;;;;11.93;8.32;;;;;;;;;;4920324;29;20053;-71
2022/07/20 13:25:35;;;;;;;13.88;8.40;;;;;;;;;;4915664;29;20439;-73
2022/07/20 13:28:02;;;;;;;17.48;11.25;;;;;;;;;;4935134;28;20050;-73
2022/07/20 13:30:40;;;;;;;19.20;11.77;;;;;;;;;;4925506;29;20059;-72
2022/07/20 13:33:08;;;;;;;20.52;12.10;;;;;;;;;;4928046;28;20053;-72
2022/07/20 13:35:35;;;;;;;15.18;10.68;;;;;;;;;;4924289;28;20048;-73
2022/07/20 13:38:02;;;;;;;16.05;11.73;;;;;;;;;;4915428;28;20092;-72
2022/07/20 13:40:29;;;;;;;21.67;12.02;;;;;;;;;;4921488;29;20104;-71
2022/07/20 13:42:57;;;;;;;16.27;10.82;;;;;;;;;;4928978;28;20040;-72
2022/07/20 13:45:24;;;;;;;18.02;10.90;;;;;;;;;;4935257;29;20032;-71
2022/07/20 13:47:50;;;;;;;15.82;11.23;;;;;;;;;;4898758;29;20048;-70
2022/07/20 13:50:17;;;;;;;14.73;10.93;;;;;;;;;;4908723;29;20484;-71
2022/07/20 13:52:44;;;;;;;17.05;10.27;;;;;;;;;;4899111;29;20063;-71
2022/07/20 13:55:19;;;;;;;15.25;10.75;;;;;;;;;;4909094;29;20053;-70
2022/07/20 13:57:46;;;;;;;11.80;10.73;;;;;;;;;;4902745;29;20405;-69
2022/07/20 14:00:13;;;;;;;16.38;12.10;;;;;;;;;;4906216;29;20047;-70
2022/07/20 14:02:40;;;;;;;14.18;10.55;;;;;;;;;;4908074;29;20052;-71
2022/07/20 14:05:07;;;;;;;12.40;11.07;;;;;;;;;;4906493;29;20523;-70
2022/07/20 14:07:34;;;;;;;15.27;10.88;;;;;;;;;;4903143;29;20048;-70
2022/07/20 14:10:02;;;;;;;22.02;11.43;;;;;;;;;;4894472;29;20053;-70
2022/07/20 14:12:29;;;;;;;15.65;11.07;;;;;;;;;;4896679;29;20052;-70
2022/07/20 14:14:56;;;;;;;15.52;11.50;;;;;;;;;;4937513;23;20052;-68
2022/07/20 14:17:23;;;;;;;13.70;10.60;;;;;;;;;;4917003;29;20059;-68
2022/07/20 14:19:50;;;;;;;14.00;10.73;;;;;;;;;;4915255;29;20554;-68
2022/07/20 14:22:17;;;;;;;16.92;10.85;;;;;;;;;;4907010;29;20051;-68
2022/07/20 14:24:43;;;;;;;12.38;11.07;;;;;;;;;;4914977;29;20063;-68
2022/07/20 14:27:10;;;;;;;23.92;11.35;;;;;;;;;;4914617;29;20630;-68
2022/07/20 14:29:37;;;;;;;15.40;11.40;;;;;;;;;;4916071;29;20052;-68
2022/07/20 14:32:05;;;;;;;14.95;11.75;;;;;;;;;;4916038;29;20048;-67
2022/07/20 14:34:32;;;;;;;18.70;11.77;;;;;;;;;;4916327;29;20080;-67
2022/07/20 14:36:59;;;;;;;15.63;11.63;;;;;;;;;;4916345;29;20052;-67
2022/07/20 14:39:25;;;;;;;15.40;11.20;;;;;;;;;;4916540;29;20491;-68
2022/07/20 14:41:52;;;;;;;20.83;11.20;;;;;;;;;;4916169;29;20048;-68
2022/07/20 14:44:19;;;;;;;15.57;10.68;;;;;;;;;;4910319;29;20063;-67
2022/07/20 14:46:46;;;;;;;13.52;10.85;;;;;;;;;;4912235;29;20063;-67
2022/07/20 14:49:13;;;;;;;18.40;10.68;;;;;;;;;;4906601;29;20049;-68
2022/07/20 14:51:40;;;;;;;14.88;11.13;;;;;;;;;;4914781;29;20496;-67
2022/07/20 14:54:06;;;;;;;13.30;10.77;;;;;;;;;;4914894;29;20059;-67